Etusivu
METAR-TAF:

METAR-TAF

Lentoasemat :

Recife, Pernambuco, Brasilia

Leveyspiiri: 08-08S, Pituuspiiri: 034-55W, korkeus merenpinnasta: 19 m

Tämänhetkinen sää

Tämä raportti tehtiin 1 tunti ja 14 minuuttia sitten, kello 00.00 UTC
Tuuli 7 kn idästä, vaihdellen idän/koillisen ja idän/kaakon välillä
Lämpötila 26°C
Kosteus 79%
Ilmanpaine 1012 hPa
Näkyvyys 10 km tai enemmän
Muutamia pilviä 2500 ft:n korkeudessa

METAR: SBRF 190000Z 09007KT 060V120 9999 FEW025 26/22 Q1012

Aika: 22:14 (01:14 UTC)

Sääennuste

Tämä raportti tehtiin 3 tuntia ja 14 minuuttia sitten, kello 22.00 UTC
Ennuste voimassa 19. päivästä klo 00 UTC - 19. päivään klo 24 UTC
Tuuli 8 kn idästä
Näkyvyys: 8000 m
Hajanaisia pilviä 2000 ft:n korkeudessa

TAF: SBRF 182200Z 1900/1924 08008KT 8000 SCT020 TN25/1908Z TX28/1915Z RMK PEA

Säähavainnot ja -ennusteet yli 4000 lentoasemalta (METAR- ja TAF-raportit).

Käytössä olevat sääasemat on merkitty karttaan keltaisilla ja punaisilla pisteillä.

Aseta hiiri pisteen päälle nähdäksesi sääaseman nimen.

Klikkaa sitten nähdäksesi säähavainnot ja -ennusteet.

Kartan vaihtaminen: klikkaa mustalla rastilla varustettuja vihreitä pisteitä, niin voit zoomata sisään; viivalla varustettua vihreää pistettä, niin voit zoomata ulos tai vihreitä nuolia, niin pääset viereisille kartoille.


METAR-TAF: